METAR AND TAF INFORMATION
METAR FOR LEJR
ADDS - METARS form results

(0352 UTC 12 December 2018)
Data provider http://aviationweather.gov/metar/data/
 
METAR text: LEJR 120330Z AUTO 00000KT 4500 BR BKN012/// BKN018/// OVC050/// 13/13 Q1023
Conditions at: LEJR (JEREZ (CIV/MIL) , ES) observed 0330 UTC 12 December 2018
Temperature: 13.0°C (55°F)
Dewpoint: 13.0°C (55°F) [RH = 100%]
Pressure (altimeter): 30.21 inches Hg (1023.0 mb)
Winds: calm
Visibility: 2.80 miles (4.51 km)
Ceiling: 1200 feet AGL
Clouds: broken clouds at 1200 feet AGL
broken clouds at 1800 feet AGL
overcast cloud deck at 5000 feet AGL
Weather: BR  (mist)

METAR text: LEJR 120300Z AUTO 00000KT 5000 BR BKN013/// OVC050/// 13/13 Q1023
Conditions at: LEJR (JEREZ (CIV/MIL) , ES) observed 0300 UTC 12 December 2018
Temperature: 13.0°C (55°F)
Dewpoint: 13.0°C (55°F) [RH = 100%]
Pressure (altimeter): 30.21 inches Hg (1023.0 mb)
Winds: calm
Visibility: 3 miles ( 5 km)
Ceiling: 1300 feet AGL
Clouds: broken clouds at 1300 feet AGL
overcast cloud deck at 5000 feet AGL
Weather: BR  (mist)

Forecast for: LEJR (JEREZ (CIV/MIL) , ES)
Text: TAF LEJR 112300Z 1200/1224 17004KT 9999 FEW015 BKN040 TX18/1214Z TN09/1206Z
Forecast period: 0000 UTC 12 December 2018 to 0000 UTC 13 December 2018
Forecast type: FROM: standard forecast or significant change
Winds: from the S (170 degrees) at 5 MPH (4 knots; 2.1 m/s)
Visibility: 6 or more miles 10+ km)
Ceiling: 4000 feet AGL
Clouds: few clouds at 1500 feet AGL
broken clouds at 4000 feet AGL
Weather: no significant weather forecast for this period
Text: TEMPO 1200/1210 4000 BR BKN010
Forecast period: 0000 to 1000 UTC 12 December 2018
Forecast type: TEMPORARY: The following changes expected for less than half the time period
Visibility: 2.49 miles (4.01 km)
Ceiling: 1000 feet AGL
Clouds: broken clouds at 1000 feet AGL
Weather: BR  (mist)
Text: PROB30
Forecast period: 0100 to 0900 UTC 12 December 2018
Forecast type: TEMPORARY: The following changes expected for less than half the time period
Visibility: 0.12 miles (0.19 km)
Ceiling: indefinite ceiling with vertical visibility of 100 feet AGL
Clouds: obscured sky
Weather: FG  (fog)

 AIRPORT MAP

 RUNWAY INFORMATION
Runway 02 Runway length 7546 ft Runway width 148 ft
Runway elevation 68 ft Runway displaced threshold 0 ft Runway heading 21
Runway 20 Runway length 7546 ft Runway width 148 ft
Runway elevation 93 ft Runway displaced threshold 0 ft Runway heading 201

 AIRPORT FREQUENCIES
Type APP Name APP Frequency 128.5 MHZ
Type GND Name GND Frequency 121.6 MHZ
Type TWR Name TWR Frequency 118.55 MHZ

 AIRPORT NEAR NAVIGATION AIDS
Type NDB Name Jerez Frequency 433 KHZ
Type VOR-DME Name Jerez Frequency 113000 KHZ